sensor_id;sensor_type;location;lat;lon;timestamp;P1;durP1;ratioP1;P2;durP2;ratioP2
66546;SDS011;53400;50.364;14.874;2023-04-24T00:00:37;17.55;;;12.05;;
66546;SDS011;53400;50.364;14.874;2023-04-24T00:03:23;16.17;;;10.80;;
66546;SDS011;53400;50.364;14.874;2023-04-24T00:05:49;17.25;;;10.82;;
66546;SDS011;53400;50.364;14.874;2023-04-24T00:08:16;19.88;;;12.20;;
66546;SDS011;53400;50.364;14.874;2023-04-24T00:10:44;18.20;;;11.10;;
66546;SDS011;53400;50.364;14.874;2023-04-24T00:13:10;16.25;;;11.10;;
66546;SDS011;53400;50.364;14.874;2023-04-24T00:15:36;17.52;;;11.73;;
66546;SDS011;53400;50.364;14.874;2023-04-24T00:18:02;17.52;;;11.35;;
66546;SDS011;53400;50.364;14.874;2023-04-24T00:20:28;16.88;;;11.68;;
66546;SDS011;53400;50.364;14.874;2023-04-24T00:23:05;16.73;;;11.25;;
66546;SDS011;53400;50.364;14.874;2023-04-24T00:25:31;16.92;;;11.52;;
66546;SDS011;53400;50.364;14.874;2023-04-24T00:27:58;15.85;;;10.82;;
66546;SDS011;53400;50.364;14.874;2023-04-24T00:30:24;17.15;;;11.52;;
66546;SDS011;53400;50.364;14.874;2023-04-24T00:32:50;17.33;;;11.23;;
66546;SDS011;53400;50.364;14.874;2023-04-24T00:35:16;16.35;;;11.63;;
66546;SDS011;53400;50.364;14.874;2023-04-24T00:37:42;16.33;;;11.30;;
66546;SDS011;53400;50.364;14.874;2023-04-24T00:40:08;18.52;;;12.15;;
66546;SDS011;53400;50.364;14.874;2023-04-24T00:42:35;16.80;;;11.52;;
66546;SDS011;53400;50.364;14.874;2023-04-24T00:45:02;16.27;;;11.38;;
66546;SDS011;53400;50.364;14.874;2023-04-24T00:47:30;16.90;;;11.35;;
66546;SDS011;53400;50.364;14.874;2023-04-24T00:49:58;16.52;;;11.20;;
66546;SDS011;53400;50.364;14.874;2023-04-24T00:52:24;15.80;;;10.88;;
66546;SDS011;53400;50.364;14.874;2023-04-24T00:54:51;16.65;;;10.65;;
66546;SDS011;53400;50.364;14.874;2023-04-24T00:57:17;18.80;;;11.40;;
66546;SDS011;53400;50.364;14.874;2023-04-24T00:59:43;18.17;;;11.82;;
66546;SDS011;53400;50.364;14.874;2023-04-24T01:02:11;21.45;;;11.93;;
66546;SDS011;53400;50.364;14.874;2023-04-24T01:04:40;16.83;;;11.38;;
66546;SDS011;53400;50.364;14.874;2023-04-24T01:07:07;19.30;;;12.75;;
66546;SDS011;53400;50.364;14.874;2023-04-24T01:09:35;18.02;;;12.35;;
66546;SDS011;53400;50.364;14.874;2023-04-24T01:12:02;21.73;;;13.43;;
66546;SDS011;53400;50.364;14.874;2023-04-24T01:14:28;19.83;;;13.45;;
66546;SDS011;53400;50.364;14.874;2023-04-24T01:16:55;20.45;;;14.40;;
66546;SDS011;53400;50.364;14.874;2023-04-24T01:19:24;20.70;;;13.73;;
66546;SDS011;53400;50.364;14.874;2023-04-24T01:21:50;19.92;;;13.40;;
66546;SDS011;53400;50.364;14.874;2023-04-24T01:24:20;20.00;;;13.27;;
66546;SDS011;53400;50.364;14.874;2023-04-24T01:26:46;18.52;;;13.75;;
66546;SDS011;53400;50.364;14.874;2023-04-24T01:29:12;20.70;;;13.65;;
66546;SDS011;53400;50.364;14.874;2023-04-24T01:31:38;20.63;;;14.13;;
66546;SDS011;53400;50.364;14.874;2023-04-24T01:34:04;19.88;;;13.50;;
66546;SDS011;53400;50.364;14.874;2023-04-24T01:36:31;19.33;;;13.13;;
66546;SDS011;53400;50.364;14.874;2023-04-24T01:38:58;19.27;;;13.57;;
66546;SDS011;53400;50.364;14.874;2023-04-24T01:41:25;20.00;;;13.18;;
66546;SDS011;53400;50.364;14.874;2023-04-24T01:43:52;18.02;;;13.20;;
66546;SDS011;53400;50.364;14.874;2023-04-24T01:46:19;19.90;;;13.55;;
66546;SDS011;53400;50.364;14.874;2023-04-24T01:48:45;21.35;;;13.45;;
66546;SDS011;53400;50.364;14.874;2023-04-24T01:51:11;20.98;;;13.35;;
66546;SDS011;53400;50.364;14.874;2023-04-24T01:53:37;21.65;;;13.07;;
66546;SDS011;53400;50.364;14.874;2023-04-24T01:56:03;19.80;;;13.35;;
66546;SDS011;53400;50.364;14.874;2023-04-24T01:58:31;18.85;;;12.65;;
66546;SDS011;53400;50.364;14.874;2023-04-24T02:00:57;16.98;;;12.50;;
66546;SDS011;53400;50.364;14.874;2023-04-24T02:03:24;18.33;;;11.95;;
66546;SDS011;53400;50.364;14.874;2023-04-24T02:05:50;16.65;;;11.45;;
66546;SDS011;53400;50.364;14.874;2023-04-24T02:08:16;17.25;;;10.88;;
66546;SDS011;53400;50.364;14.874;2023-04-24T02:10:42;17.05;;;10.80;;
66546;SDS011;53400;50.364;14.874;2023-04-24T02:13:08;17.13;;;10.95;;
66546;SDS011;53400;50.364;14.874;2023-04-24T02:15:35;15.73;;;10.90;;
66546;SDS011;53400;50.364;14.874;2023-04-24T02:18:01;16.58;;;9.90;;
66546;SDS011;53400;50.364;14.874;2023-04-24T02:20:27;15.90;;;10.60;;
66546;SDS011;53400;50.364;14.874;2023-04-24T02:22:53;16.92;;;11.15;;
66546;SDS011;53400;50.364;14.874;2023-04-24T02:25:19;15.45;;;10.85;;
66546;SDS011;53400;50.364;14.874;2023-04-24T02:27:45;16.23;;;11.32;;
66546;SDS011;53400;50.364;14.874;2023-04-24T02:30:11;15.70;;;10.63;;
66546;SDS011;53400;50.364;14.874;2023-04-24T02:32:39;16.08;;;11.02;;
66546;SDS011;53400;50.364;14.874;2023-04-24T02:35:05;14.18;;;10.38;;
66546;SDS011;53400;50.364;14.874;2023-04-24T02:37:32;14.38;;;8.85;;
66546;SDS011;53400;50.364;14.874;2023-04-24T02:39:57;13.82;;;9.27;;
66546;SDS011;53400;50.364;14.874;2023-04-24T02:42:23;12.63;;;8.13;;
66546;SDS011;53400;50.364;14.874;2023-04-24T02:44:49;12.80;;;7.75;;
66546;SDS011;53400;50.364;14.874;2023-04-24T02:47:16;12.10;;;7.55;;
66546;SDS011;53400;50.364;14.874;2023-04-24T02:49:44;11.18;;;7.28;;
66546;SDS011;53400;50.364;14.874;2023-04-24T02:52:09;13.27;;;8.95;;
66546;SDS011;53400;50.364;14.874;2023-04-24T02:54:36;13.40;;;9.20;;
66546;SDS011;53400;50.364;14.874;2023-04-24T02:57:02;14.77;;;9.15;;
66546;SDS011;53400;50.364;14.874;2023-04-24T02:59:27;16.60;;;10.93;;
66546;SDS011;53400;50.364;14.874;2023-04-24T03:01:54;14.32;;;10.63;;
66546;SDS011;53400;50.364;14.874;2023-04-24T03:04:20;16.88;;;10.95;;
66546;SDS011;53400;50.364;14.874;2023-04-24T03:06:49;16.67;;;10.63;;
66546;SDS011;53400;50.364;14.874;2023-04-24T03:09:18;18.30;;;11.45;;
66546;SDS011;53400;50.364;14.874;2023-04-24T03:11:44;16.73;;;11.25;;
66546;SDS011;53400;50.364;14.874;2023-04-24T03:14:09;15.45;;;10.50;;
66546;SDS011;53400;50.364;14.874;2023-04-24T03:16:35;16.13;;;10.82;;
66546;SDS011;53400;50.364;14.874;2023-04-24T03:19:02;13.80;;;8.98;;
66546;SDS011;53400;50.364;14.874;2023-04-24T03:21:28;12.43;;;8.82;;
66546;SDS011;53400;50.364;14.874;2023-04-24T03:23:55;13.55;;;8.68;;
66546;SDS011;53400;50.364;14.874;2023-04-24T03:26:22;11.75;;;8.00;;
66546;SDS011;53400;50.364;14.874;2023-04-24T03:28:47;13.05;;;7.78;;
66546;SDS011;53400;50.364;14.874;2023-04-24T03:31:14;13.07;;;7.90;;
66546;SDS011;53400;50.364;14.874;2023-04-24T03:33:40;13.30;;;7.78;;
66546;SDS011;53400;50.364;14.874;2023-04-24T03:36:06;13.60;;;8.30;;
66546;SDS011;53400;50.364;14.874;2023-04-24T03:38:32;11.05;;;7.82;;
66546;SDS011;53400;50.364;14.874;2023-04-24T03:41:00;13.00;;;7.75;;
66546;SDS011;53400;50.364;14.874;2023-04-24T03:43:25;13.15;;;8.20;;
66546;SDS011;53400;50.364;14.874;2023-04-24T03:45:52;11.95;;;7.53;;
66546;SDS011;53400;50.364;14.874;2023-04-24T03:48:18;12.55;;;8.45;;
66546;SDS011;53400;50.364;14.874;2023-04-24T03:50:45;11.25;;;7.32;;
66546;SDS011;53400;50.364;14.874;2023-04-24T03:53:11;11.65;;;6.75;;
66546;SDS011;53400;50.364;14.874;2023-04-24T03:55:37;11.35;;;7.30;;
66546;SDS011;53400;50.364;14.874;2023-04-24T03:58:04;12.48;;;7.40;;
66546;SDS011;53400;50.364;14.874;2023-04-24T04:00:31;11.13;;;7.65;;
66546;SDS011;53400;50.364;14.874;2023-04-24T04:02:57;10.32;;;7.07;;
66546;SDS011;53400;50.364;14.874;2023-04-24T04:05:23;9.65;;;6.30;;
66546;SDS011;53400;50.364;14.874;2023-04-24T04:07:49;9.80;;;5.78;;
66546;SDS011;53400;50.364;14.874;2023-04-24T04:10:15;11.43;;;7.65;;
66546;SDS011;53400;50.364;14.874;2023-04-24T04:12:42;11.27;;;7.25;;
66546;SDS011;53400;50.364;14.874;2023-04-24T04:15:11;13.98;;;9.35;;
66546;SDS011;53400;50.364;14.874;2023-04-24T04:17:37;13.77;;;9.70;;
66546;SDS011;53400;50.364;14.874;2023-04-24T04:20:04;15.27;;;10.70;;
66546;SDS011;53400;50.364;14.874;2023-04-24T04:22:37;15.60;;;9.85;;
66546;SDS011;53400;50.364;14.874;2023-04-24T04:25:03;14.60;;;9.38;;
66546;SDS011;53400;50.364;14.874;2023-04-24T04:27:29;13.98;;;9.25;;
66546;SDS011;53400;50.364;14.874;2023-04-24T04:29:57;13.75;;;8.77;;
66546;SDS011;53400;50.364;14.874;2023-04-24T04:32:26;11.02;;;7.63;;
66546;SDS011;53400;50.364;14.874;2023-04-24T04:34:55;13.98;;;8.70;;
66546;SDS011;53400;50.364;14.874;2023-04-24T04:37:21;13.93;;;8.73;;
66546;SDS011;53400;50.364;14.874;2023-04-24T04:39:47;12.93;;;8.63;;
66546;SDS011;53400;50.364;14.874;2023-04-24T04:42:13;13.77;;;9.27;;
66546;SDS011;53400;50.364;14.874;2023-04-24T04:44:39;16.00;;;10.75;;
66546;SDS011;53400;50.364;14.874;2023-04-24T04:47:06;17.38;;;11.25;;
66546;SDS011;53400;50.364;14.874;2023-04-24T04:49:33;17.73;;;11.05;;
66546;SDS011;53400;50.364;14.874;2023-04-24T04:52:00;15.70;;;10.63;;
66546;SDS011;53400;50.364;14.874;2023-04-24T04:54:26;18.17;;;11.05;;
66546;SDS011;53400;50.364;14.874;2023-04-24T04:56:51;15.85;;;10.38;;
66546;SDS011;53400;50.364;14.874;2023-04-24T04:59:18;14.90;;;9.95;;
66546;SDS011;53400;50.364;14.874;2023-04-24T05:01:43;17.63;;;11.30;;
66546;SDS011;53400;50.364;14.874;2023-04-24T05:04:09;14.10;;;9.45;;
66546;SDS011;53400;50.364;14.874;2023-04-24T05:06:37;15.20;;;9.70;;
66546;SDS011;53400;50.364;14.874;2023-04-24T05:09:03;13.82;;;9.15;;
66546;SDS011;53400;50.364;14.874;2023-04-24T05:11:29;17.25;;;9.48;;
66546;SDS011;53400;50.364;14.874;2023-04-24T05:13:55;16.60;;;10.07;;
66546;SDS011;53400;50.364;14.874;2023-04-24T05:16:21;13.82;;;9.55;;
66546;SDS011;53400;50.364;14.874;2023-04-24T05:18:47;13.18;;;9.15;;
66546;SDS011;53400;50.364;14.874;2023-04-24T05:21:13;14.98;;;9.52;;
66546;SDS011;53400;50.364;14.874;2023-04-24T05:23:41;12.90;;;9.02;;
66546;SDS011;53400;50.364;14.874;2023-04-24T05:26:07;12.75;;;9.13;;
66546;SDS011;53400;50.364;14.874;2023-04-24T05:28:33;13.13;;;8.40;;
66546;SDS011;53400;50.364;14.874;2023-04-24T05:31:01;12.57;;;8.50;;
66546;SDS011;53400;50.364;14.874;2023-04-24T05:33:28;12.85;;;8.25;;
66546;SDS011;53400;50.364;14.874;2023-04-24T05:35:53;13.25;;;8.43;;
66546;SDS011;53400;50.364;14.874;2023-04-24T05:38:19;13.15;;;8.38;;
66546;SDS011;53400;50.364;14.874;2023-04-24T05:40:47;12.55;;;7.78;;
66546;SDS011;53400;50.364;14.874;2023-04-24T05:43:13;11.20;;;7.43;;
66546;SDS011;53400;50.364;14.874;2023-04-24T05:45:39;12.35;;;8.35;;
66546;SDS011;53400;50.364;14.874;2023-04-24T05:48:05;11.98;;;7.75;;
66546;SDS011;53400;50.364;14.874;2023-04-24T05:50:31;12.05;;;7.93;;
66546;SDS011;53400;50.364;14.874;2023-04-24T05:52:58;12.85;;;7.63;;
66546;SDS011;53400;50.364;14.874;2023-04-24T05:55:24;13.18;;;7.68;;
66546;SDS011;53400;50.364;14.874;2023-04-24T05:57:52;8.70;;;6.32;;
66546;SDS011;53400;50.364;14.874;2023-04-24T06:00:18;9.38;;;5.55;;
66546;SDS011;53400;50.364;14.874;2023-04-24T06:02:45;8.35;;;5.05;;
66546;SDS011;53400;50.364;14.874;2023-04-24T06:05:12;8.73;;;5.13;;
66546;SDS011;53400;50.364;14.874;2023-04-24T06:07:38;8.52;;;5.35;;
66546;SDS011;53400;50.364;14.874;2023-04-24T06:10:06;8.98;;;5.60;;
66546;SDS011;53400;50.364;14.874;2023-04-24T06:12:33;7.63;;;4.65;;
66546;SDS011;53400;50.364;14.874;2023-04-24T06:15:00;8.07;;;4.30;;
66546;SDS011;53400;50.364;14.874;2023-04-24T06:17:26;7.68;;;4.75;;
66546;SDS011;53400;50.364;14.874;2023-04-24T06:19:52;7.18;;;4.18;;
66546;SDS011;53400;50.364;14.874;2023-04-24T06:22:18;7.07;;;4.20;;
66546;SDS011;53400;50.364;14.874;2023-04-24T06:24:44;8.00;;;4.47;;
66546;SDS011;53400;50.364;14.874;2023-04-24T06:27:11;9.75;;;4.63;;
66546;SDS011;53400;50.364;14.874;2023-04-24T06:29:37;7.82;;;4.07;;
66546;SDS011;53400;50.364;14.874;2023-04-24T06:32:06;8.85;;;4.65;;
66546;SDS011;53400;50.364;14.874;2023-04-24T06:34:33;9.45;;;4.68;;
66546;SDS011;53400;50.364;14.874;2023-04-24T06:37:00;9.10;;;5.15;;
66546;SDS011;53400;50.364;14.874;2023-04-24T06:39:27;7.90;;;5.05;;
66546;SDS011;53400;50.364;14.874;2023-04-24T06:41:53;8.77;;;5.30;;
66546;SDS011;53400;50.364;14.874;2023-04-24T06:44:19;8.20;;;4.93;;
66546;SDS011;53400;50.364;14.874;2023-04-24T06:46:45;9.18;;;5.70;;
66546;SDS011;53400;50.364;14.874;2023-04-24T06:49:12;8.13;;;5.07;;
66546;SDS011;53400;50.364;14.874;2023-04-24T06:51:41;8.13;;;5.18;;
66546;SDS011;53400;50.364;14.874;2023-04-24T06:54:14;7.55;;;4.82;;
66546;SDS011;53400;50.364;14.874;2023-04-24T06:56:40;9.07;;;5.10;;
66546;SDS011;53400;50.364;14.874;2023-04-24T06:59:06;8.32;;;5.60;;
66546;SDS011;53400;50.364;14.874;2023-04-24T07:01:32;8.52;;;4.72;;
66546;SDS011;53400;50.364;14.874;2023-04-24T07:04:04;8.10;;;5.07;;
66546;SDS011;53400;50.364;14.874;2023-04-24T07:06:33;7.43;;;4.93;;
66546;SDS011;53400;50.364;14.874;2023-04-24T07:09:00;8.25;;;4.80;;
66546;SDS011;53400;50.364;14.874;2023-04-24T07:11:27;8.07;;;4.60;;
66546;SDS011;53400;50.364;14.874;2023-04-24T07:13:54;8.82;;;4.75;;
66546;SDS011;53400;50.364;14.874;2023-04-24T07:16:21;9.65;;;5.00;;
66546;SDS011;53400;50.364;14.874;2023-04-24T07:18:47;8.38;;;4.20;;
66546;SDS011;53400;50.364;14.874;2023-04-24T07:21:13;8.65;;;4.45;;
66546;SDS011;53400;50.364;14.874;2023-04-24T07:23:41;7.90;;;4.78;;
66546;SDS011;53400;50.364;14.874;2023-04-24T07:26:07;7.93;;;4.38;;
66546;SDS011;53400;50.364;14.874;2023-04-24T07:28:33;7.90;;;4.38;;
66546;SDS011;53400;50.364;14.874;2023-04-24T07:30:59;8.75;;;4.57;;
66546;SDS011;53400;50.364;14.874;2023-04-24T07:33:25;9.38;;;5.10;;
66546;SDS011;53400;50.364;14.874;2023-04-24T07:35:51;8.45;;;5.28;;
66546;SDS011;53400;50.364;14.874;2023-04-24T07:38:18;10.45;;;4.88;;
66546;SDS011;53400;50.364;14.874;2023-04-24T07:40:49;8.75;;;5.30;;
66546;SDS011;53400;50.364;14.874;2023-04-24T07:43:15;9.73;;;5.50;;
66546;SDS011;53400;50.364;14.874;2023-04-24T07:45:41;9.07;;;5.53;;
66546;SDS011;53400;50.364;14.874;2023-04-24T07:48:08;10.90;;;5.68;;
66546;SDS011;53400;50.364;14.874;2023-04-24T07:50:34;10.02;;;6.00;;
66546;SDS011;53400;50.364;14.874;2023-04-24T07:53:01;9.77;;;6.32;;
66546;SDS011;53400;50.364;14.874;2023-04-24T07:55:27;9.77;;;5.22;;
66546;SDS011;53400;50.364;14.874;2023-04-24T07:57:55;9.82;;;5.63;;
66546;SDS011;53400;50.364;14.874;2023-04-24T08:00:21;9.13;;;5.53;;
66546;SDS011;53400;50.364;14.874;2023-04-24T08:02:47;9.32;;;5.75;;
66546;SDS011;53400;50.364;14.874;2023-04-24T08:05:13;8.93;;;5.40;;
66546;SDS011;53400;50.364;14.874;2023-04-24T08:07:39;9.43;;;5.18;;
66546;SDS011;53400;50.364;14.874;2023-04-24T08:10:05;8.32;;;4.88;;
66546;SDS011;53400;50.364;14.874;2023-04-24T08:12:32;9.43;;;5.25;;
66546;SDS011;53400;50.364;14.874;2023-04-24T08:15:00;8.73;;;5.07;;
66546;SDS011;53400;50.364;14.874;2023-04-24T08:17:26;8.48;;;5.03;;
66546;SDS011;53400;50.364;14.874;2023-04-24T08:19:55;8.18;;;5.03;;
66546;SDS011;53400;50.364;14.874;2023-04-24T08:22:26;7.53;;;4.93;;
66546;SDS011;53400;50.364;14.874;2023-04-24T08:24:53;9.82;;;4.70;;
66546;SDS011;53400;50.364;14.874;2023-04-24T08:27:21;8.70;;;5.43;;
66546;SDS011;53400;50.364;14.874;2023-04-24T08:29:52;8.45;;;5.30;;
66546;SDS011;53400;50.364;14.874;2023-04-24T08:32:23;7.32;;;4.80;;
66546;SDS011;53400;50.364;14.874;2023-04-24T08:34:49;8.88;;;5.25;;
66546;SDS011;53400;50.364;14.874;2023-04-24T08:37:15;10.40;;;5.60;;
66546;SDS011;53400;50.364;14.874;2023-04-24T08:39:42;8.80;;;4.65;;
66546;SDS011;53400;50.364;14.874;2023-04-24T08:42:08;8.40;;;4.80;;
66546;SDS011;53400;50.364;14.874;2023-04-24T08:44:35;8.05;;;5.10;;
66546;SDS011;53400;50.364;14.874;2023-04-24T08:47:01;8.55;;;4.90;;
66546;SDS011;53400;50.364;14.874;2023-04-24T08:49:29;7.55;;;4.50;;
66546;SDS011;53400;50.364;14.874;2023-04-24T08:51:55;8.95;;;5.68;;
66546;SDS011;53400;50.364;14.874;2023-04-24T08:54:22;9.45;;;5.20;;
66546;SDS011;53400;50.364;14.874;2023-04-24T08:56:49;8.65;;;4.95;;
66546;SDS011;53400;50.364;14.874;2023-04-24T08:59:17;7.55;;;4.60;;
66546;SDS011;53400;50.364;14.874;2023-04-24T09:01:43;7.65;;;4.57;;
66546;SDS011;53400;50.364;14.874;2023-04-24T09:04:11;7.22;;;4.40;;
66546;SDS011;53400;50.364;14.874;2023-04-24T09:06:42;8.07;;;4.35;;
66546;SDS011;53400;50.364;14.874;2023-04-24T09:09:08;7.40;;;4.55;;
66546;SDS011;53400;50.364;14.874;2023-04-24T09:11:36;6.55;;;3.47;;
66546;SDS011;53400;50.364;14.874;2023-04-24T09:14:03;6.80;;;3.92;;
66546;SDS011;53400;50.364;14.874;2023-04-24T09:16:29;6.35;;;3.92;;
66546;SDS011;53400;50.364;14.874;2023-04-24T09:18:55;7.07;;;3.83;;
66546;SDS011;53400;50.364;14.874;2023-04-24T09:21:21;7.05;;;4.10;;
66546;SDS011;53400;50.364;14.874;2023-04-24T09:23:58;6.30;;;3.30;;
66546;SDS011;53400;50.364;14.874;2023-04-24T09:26:25;6.93;;;3.63;;
66546;SDS011;53400;50.364;14.874;2023-04-24T09:28:51;6.10;;;4.05;;
66546;SDS011;53400;50.364;14.874;2023-04-24T09:31:18;6.53;;;3.60;;
66546;SDS011;53400;50.364;14.874;2023-04-24T09:33:53;6.60;;;3.67;;
66546;SDS011;53400;50.364;14.874;2023-04-24T09:36:22;6.72;;;3.67;;
66546;SDS011;53400;50.364;14.874;2023-04-24T09:38:53;6.65;;;3.60;;
66546;SDS011;53400;50.364;14.874;2023-04-24T09:41:24;6.03;;;3.15;;
66546;SDS011;53400;50.364;14.874;2023-04-24T09:43:51;6.13;;;3.58;;
66546;SDS011;53400;50.364;14.874;2023-04-24T09:46:19;6.90;;;3.03;;
66546;SDS011;53400;50.364;14.874;2023-04-24T09:48:46;5.72;;;2.95;;
66546;SDS011;53400;50.364;14.874;2023-04-24T09:51:12;5.55;;;3.03;;
66546;SDS011;53400;50.364;14.874;2023-04-24T09:53:38;4.50;;;2.55;;
66546;SDS011;53400;50.364;14.874;2023-04-24T09:56:07;4.93;;;2.50;;
66546;SDS011;53400;50.364;14.874;2023-04-24T09:58:36;4.25;;;2.03;;
66546;SDS011;53400;50.364;14.874;2023-04-24T10:01:02;4.32;;;1.70;;
66546;SDS011;53400;50.364;14.874;2023-04-24T10:03:29;3.47;;;1.92;;
66546;SDS011;53400;50.364;14.874;2023-04-24T10:05:57;4.35;;;1.92;;
66546;SDS011;53400;50.364;14.874;2023-04-24T10:08:32;4.32;;;1.92;;
66546;SDS011;53400;50.364;14.874;2023-04-24T10:10:59;4.22;;;2.10;;
66546;SDS011;53400;50.364;14.874;2023-04-24T10:13:25;4.53;;;2.08;;
66546;SDS011;53400;50.364;14.874;2023-04-24T10:15:53;4.78;;;2.15;;
66546;SDS011;53400;50.364;14.874;2023-04-24T10:18:19;4.30;;;2.15;;
66546;SDS011;53400;50.364;14.874;2023-04-24T10:20:47;4.70;;;1.95;;
66546;SDS011;53400;50.364;14.874;2023-04-24T10:23:13;5.13;;;1.85;;
66546;SDS011;53400;50.364;14.874;2023-04-24T10:25:40;4.90;;;2.00;;
66546;SDS011;53400;50.364;14.874;2023-04-24T10:28:06;5.22;;;2.40;;
66546;SDS011;53400;50.364;14.874;2023-04-24T10:30:33;5.28;;;2.30;;
66546;SDS011;53400;50.364;14.874;2023-04-24T10:33:02;4.15;;;1.85;;
66546;SDS011;53400;50.364;14.874;2023-04-24T10:35:30;5.22;;;1.90;;
66546;SDS011;53400;50.364;14.874;2023-04-24T10:37:57;4.85;;;1.90;;
66546;SDS011;53400;50.364;14.874;2023-04-24T10:40:27;3.88;;;1.45;;
66546;SDS011;53400;50.364;14.874;2023-04-24T10:42:56;3.75;;;1.60;;
66546;SDS011;53400;50.364;14.874;2023-04-24T10:45:22;3.65;;;1.35;;
66546;SDS011;53400;50.364;14.874;2023-04-24T10:47:54;3.83;;;1.63;;
66546;SDS011;53400;50.364;14.874;2023-04-24T10:50:25;4.32;;;1.77;;
66546;SDS011;53400;50.364;14.874;2023-04-24T10:52:53;4.43;;;1.70;;
66546;SDS011;53400;50.364;14.874;2023-04-24T10:55:40;3.90;;;1.50;;
66546;SDS011;53400;50.364;14.874;2023-04-24T10:58:11;4.05;;;1.40;;
66546;SDS011;53400;50.364;14.874;2023-04-24T11:00:37;3.53;;;1.70;;
66546;SDS011;53400;50.364;14.874;2023-04-24T11:03:04;5.05;;;1.58;;
66546;SDS011;53400;50.364;14.874;2023-04-24T11:08:23;2.95;;;1.05;;
66546;SDS011;53400;50.364;14.874;2023-04-24T11:10:55;2.88;;;1.13;;
66546;SDS011;53400;50.364;14.874;2023-04-24T11:14:00;2.65;;;1.10;;
66546;SDS011;53400;50.364;14.874;2023-04-24T11:16:32;3.33;;;1.20;;
66546;SDS011;53400;50.364;14.874;2023-04-24T11:19:01;3.03;;;1.40;;
66546;SDS011;53400;50.364;14.874;2023-04-24T11:21:38;3.95;;;1.55;;
66546;SDS011;53400;50.364;14.874;2023-04-24T11:24:23;3.83;;;1.67;;
66546;SDS011;53400;50.364;14.874;2023-04-24T11:26:51;2.97;;;1.40;;
66546;SDS011;53400;50.364;14.874;2023-04-24T11:29:19;3.97;;;1.40;;
66546;SDS011;53400;50.364;14.874;2023-04-24T11:31:47;4.30;;;1.60;;
66546;SDS011;53400;50.364;14.874;2023-04-24T11:34:17;3.65;;;1.63;;
66546;SDS011;53400;50.364;14.874;2023-04-24T11:36:48;5.45;;;1.80;;
66546;SDS011;53400;50.364;14.874;2023-04-24T11:39:15;3.08;;;1.48;;
66546;SDS011;53400;50.364;14.874;2023-04-24T11:41:41;4.85;;;1.70;;
66546;SDS011;53400;50.364;14.874;2023-04-24T11:44:08;4.03;;;1.70;;
66546;SDS011;53400;50.364;14.874;2023-04-24T11:46:35;5.07;;;2.30;;
66546;SDS011;53400;50.364;14.874;2023-04-24T11:49:03;5.30;;;2.92;;
66546;SDS011;53400;50.364;14.874;2023-04-24T11:51:29;5.80;;;2.20;;
66546;SDS011;53400;50.364;14.874;2023-04-24T11:53:56;4.65;;;2.08;;
66546;SDS011;53400;50.364;14.874;2023-04-24T11:56:23;4.80;;;2.40;;
66546;SDS011;53400;50.364;14.874;2023-04-24T11:58:51;5.45;;;2.50;;
66546;SDS011;53400;50.364;14.874;2023-04-24T12:01:18;6.13;;;2.70;;
66546;SDS011;53400;50.364;14.874;2023-04-24T12:03:47;6.25;;;3.22;;
66546;SDS011;53400;50.364;14.874;2023-04-24T12:06:13;5.05;;;3.05;;
66546;SDS011;53400;50.364;14.874;2023-04-24T12:08:40;6.85;;;3.22;;
66546;SDS011;53400;50.364;14.874;2023-04-24T12:11:07;7.47;;;3.10;;
66546;SDS011;53400;50.364;14.874;2023-04-24T12:13:34;8.82;;;3.08;;
66546;SDS011;53400;50.364;14.874;2023-04-24T12:16:01;6.30;;;3.35;;
66546;SDS011;53400;50.364;14.874;2023-04-24T12:18:29;4.75;;;2.90;;
66546;SDS011;53400;50.364;14.874;2023-04-24T12:20:54;5.38;;;2.80;;
66546;SDS011;53400;50.364;14.874;2023-04-24T12:23:33;6.55;;;2.90;;
66546;SDS011;53400;50.364;14.874;2023-04-24T12:26:03;6.50;;;2.80;;
66546;SDS011;53400;50.364;14.874;2023-04-24T12:28:36;5.63;;;3.00;;
66546;SDS011;53400;50.364;14.874;2023-04-24T12:31:02;5.10;;;2.83;;
66546;SDS011;53400;50.364;14.874;2023-04-24T12:33:32;6.82;;;2.97;;
66546;SDS011;53400;50.364;14.874;2023-04-24T12:35:59;5.18;;;3.03;;
66546;SDS011;53400;50.364;14.874;2023-04-24T12:38:26;5.50;;;3.00;;
66546;SDS011;53400;50.364;14.874;2023-04-24T12:41:01;5.03;;;2.47;;
66546;SDS011;53400;50.364;14.874;2023-04-24T12:43:28;5.95;;;3.22;;
66546;SDS011;53400;50.364;14.874;2023-04-24T12:45:55;4.88;;;2.83;;
66546;SDS011;53400;50.364;14.874;2023-04-24T12:48:22;5.13;;;2.53;;
66546;SDS011;53400;50.364;14.874;2023-04-24T12:50:48;4.75;;;2.78;;
66546;SDS011;53400;50.364;14.874;2023-04-24T12:53:14;5.15;;;2.88;;
66546;SDS011;53400;50.364;14.874;2023-04-24T12:55:41;5.82;;;3.10;;
66546;SDS011;53400;50.364;14.874;2023-04-24T12:58:07;5.07;;;2.60;;
66546;SDS011;53400;50.364;14.874;2023-04-24T13:00:33;4.05;;;1.83;;
66546;SDS011;53400;50.364;14.874;2023-04-24T13:03:00;3.58;;;1.35;;
66546;SDS011;53400;50.364;14.874;2023-04-24T13:05:27;4.20;;;1.63;;
66546;SDS011;53400;50.364;14.874;2023-04-24T13:07:53;3.50;;;1.60;;
66546;SDS011;53400;50.364;14.874;2023-04-24T13:10:19;2.88;;;1.40;;
66546;SDS011;53400;50.364;14.874;2023-04-24T13:12:45;5.70;;;1.60;;
66546;SDS011;53400;50.364;14.874;2023-04-24T13:15:11;3.08;;;1.40;;
66546;SDS011;53400;50.364;14.874;2023-04-24T13:17:38;4.32;;;1.50;;
66546;SDS011;53400;50.364;14.874;2023-04-24T13:20:06;9.02;;;1.80;;
66546;SDS011;53400;50.364;14.874;2023-04-24T13:22:33;4.38;;;1.60;;
66546;SDS011;53400;50.364;14.874;2023-04-24T13:24:58;4.15;;;1.73;;
66546;SDS011;53400;50.364;14.874;2023-04-24T13:27:25;3.78;;;1.70;;
66546;SDS011;53400;50.364;14.874;2023-04-24T13:29:51;3.03;;;1.33;;
66546;SDS011;53400;50.364;14.874;2023-04-24T13:32:17;3.67;;;1.60;;
66546;SDS011;53400;50.364;14.874;2023-04-24T13:34:43;4.13;;;1.80;;
66546;SDS011;53400;50.364;14.874;2023-04-24T13:37:10;5.10;;;1.98;;
66546;SDS011;53400;50.364;14.874;2023-04-24T13:39:36;5.88;;;1.60;;
66546;SDS011;53400;50.364;14.874;2023-04-24T13:42:03;4.30;;;1.98;;
66546;SDS011;53400;50.364;14.874;2023-04-24T13:44:29;5.40;;;2.00;;
66546;SDS011;53400;50.364;14.874;2023-04-24T13:46:55;4.07;;;1.77;;
66546;SDS011;53400;50.364;14.874;2023-04-24T13:49:22;3.78;;;1.83;;
66546;SDS011;53400;50.364;14.874;2023-04-24T13:51:52;3.20;;;1.50;;
66546;SDS011;53400;50.364;14.874;2023-04-24T13:54:21;4.00;;;1.50;;
66546;SDS011;53400;50.364;14.874;2023-04-24T13:56:49;4.90;;;1.60;;
66546;SDS011;53400;50.364;14.874;2023-04-24T13:59:15;4.22;;;1.65;;
66546;SDS011;53400;50.364;14.874;2023-04-24T14:01:42;6.25;;;1.70;;
66546;SDS011;53400;50.364;14.874;2023-04-24T14:04:10;4.78;;;1.70;;
66546;SDS011;53400;50.364;14.874;2023-04-24T14:06:36;4.22;;;2.10;;
66546;SDS011;53400;50.364;14.874;2023-04-24T14:09:02;3.60;;;1.75;;
66546;SDS011;53400;50.364;14.874;2023-04-24T14:11:30;3.33;;;1.60;;
66546;SDS011;53400;50.364;14.874;2023-04-24T14:13:55;4.18;;;1.40;;
66546;SDS011;53400;50.364;14.874;2023-04-24T14:16:22;3.42;;;1.50;;
66546;SDS011;53400;50.364;14.874;2023-04-24T14:18:48;5.85;;;1.85;;
66546;SDS011;53400;50.364;14.874;2023-04-24T14:21:14;4.15;;;1.40;;
66546;SDS011;53400;50.364;14.874;2023-04-24T14:23:40;3.38;;;1.45;;
66546;SDS011;53400;50.364;14.874;2023-04-24T14:26:09;2.97;;;1.27;;
66546;SDS011;53400;50.364;14.874;2023-04-24T14:28:39;3.75;;;1.33;;